Time;durP1;ratioP1;P1;durP2;ratioP2;P2;SDS_P1;SDS_P2;PMS_P1;PMS_P2;Temp;Humidity;BMP_temperature;BMP_pressure;BME280_temperature;BME280_humidity;BME280_pressure;Samples;Min_cycle;Max_cycle;Signal;HPM_P1;HPM_P2
2024/04/03 00:06:59;;;;;;;;;;;4.40;99.90;;;;;;21087698;28;19916;-76
2024/04/03 00:16:59;;;;;;;;;;;4.80;99.90;;;;;;21086424;28;19923;-76
2024/04/03 00:27:00;;;;;;;;;;;4.90;99.90;;;;;;21085898;28;20332;-75
2024/04/03 00:37:00;;;;;;;;;;;5.00;99.90;;;;;;21085306;28;19919;-75
2024/04/03 00:47:02;;;;;;;;;;;4.90;99.90;;;;;;21084340;28;20371;-76
2024/04/03 00:57:03;;;;;;;;;;;4.80;99.90;;;;;;21084439;28;19912;-76
2024/04/03 01:07:06;;;;;;;;;;;4.70;99.90;;;;;;21082708;28;19990;-76
2024/04/03 01:17:07;;;;;;;;;;;4.70;99.90;;;;;;21081564;28;19916;-76
2024/04/03 01:27:08;;;;;;;;;;;4.30;99.90;;;;;;21081044;28;20497;-76
2024/04/03 01:37:08;;;;;;;;;;;3.80;99.90;;;;;;21080485;28;19916;-76
2024/04/03 01:47:09;;;;;;;;;;;3.80;99.90;;;;;;21079593;28;19923;-76
2024/04/03 01:57:10;;;;;;;;;;;4.30;99.90;;;;;;21078452;28;19999;-75
2024/04/03 02:07:10;;;;;;;;;;;4.40;99.90;;;;;;21076989;28;19920;-77
2024/04/03 02:17:11;;;;;;;;;;;4.50;99.90;;;;;;21077622;28;20283;-76
2024/04/03 02:27:12;;;;;;;;;;;4.60;99.90;;;;;;21076307;28;20437;-76
2024/04/03 02:37:13;;;;;;;;;;;4.40;99.90;;;;;;21075558;28;19912;-76
2024/04/03 02:47:13;;;;;;;;;;;4.40;99.90;;;;;;21075201;28;19963;-76
2024/04/03 02:57:15;;;;;;;;;;;4.60;99.90;;;;;;21074552;28;19919;-77
2024/04/03 03:07:15;;;;;;;;;;;4.60;99.90;;;;;;21070102;28;19926;-77
2024/04/03 03:17:16;;;;;;;;;;;4.70;99.90;;;;;;21069297;28;19922;-76
2024/04/03 03:27:16;;;;;;;;;;;4.80;99.90;;;;;;21072750;28;19919;-76
2024/04/03 03:37:17;;;;;;;;;;;4.90;99.90;;;;;;21072449;28;20007;-76
2024/04/03 03:47:18;;;;;;;;;;;4.90;99.90;;;;;;21070941;28;19916;-76
2024/04/03 03:57:18;;;;;;;;;;;4.90;99.90;;;;;;21069809;28;19912;-76
2024/04/03 04:07:19;;;;;;;;;;;5.00;99.90;;;;;;21071522;28;19924;-76
2024/04/03 04:17:22;;;;;;;;;;;4.80;99.90;;;;;;21066487;28;19936;-76
2024/04/03 04:27:22;;;;;;;;;;;4.40;99.90;;;;;;21070963;28;19939;-76
2024/04/03 04:37:24;;;;;;;;;;;4.60;99.90;;;;;;21085014;28;19919;-75
2024/04/03 04:47:24;;;;;;;;;;;4.80;99.90;;;;;;21084213;28;20022;-76
2024/04/03 04:57:25;;;;;;;;;;;4.90;99.90;;;;;;21084254;28;20407;-76
2024/04/03 05:07:25;;;;;;;;;;;4.80;99.90;;;;;;21083151;28;19921;-75
2024/04/03 05:17:26;;;;;;;;;;;4.80;99.90;;;;;;21077231;28;19950;-74
2024/04/03 05:27:27;;;;;;;;;;;4.80;99.90;;;;;;21077460;28;20443;-74
2024/04/03 05:37:27;;;;;;;;;;;5.00;99.90;;;;;;21074954;28;19962;-77
2024/04/03 05:47:28;;;;;;;;;;;5.10;99.90;;;;;;21079550;28;19924;-75
2024/04/03 05:57:30;;;;;;;;;;;5.30;99.90;;;;;;21073514;28;20330;-77
2024/04/03 06:07:30;;;;;;;;;;;5.10;99.90;;;;;;21073316;28;19916;-76
2024/04/03 06:17:31;;;;;;;;;;;5.30;99.90;;;;;;21073013;28;19916;-77
2024/04/03 06:27:31;;;;;;;;;;;5.40;99.90;;;;;;21077031;28;19916;-77
2024/04/03 06:37:32;;;;;;;;;;;5.50;99.90;;;;;;21080596;28;20399;-77
2024/04/03 06:47:33;;;;;;;;;;;5.10;99.90;;;;;;21072723;28;19927;-76
2024/04/03 06:57:33;;;;;;;;;;;5.20;99.90;;;;;;21085973;28;19993;-74
2024/04/03 07:07:34;;;;;;;;;;;5.30;99.90;;;;;;21093550;28;19916;-77
2024/04/03 07:17:35;;;;;;;;;;;5.40;99.90;;;;;;21079017;28;19958;-74
2024/04/03 07:27:36;;;;;;;;;;;5.50;99.90;;;;;;21090252;28;19920;-78
2024/04/03 07:37:38;;;;;;;;;;;5.90;99.90;;;;;;21091318;28;19955;-78
2024/04/03 07:47:39;;;;;;;;;;;6.10;99.90;;;;;;21091865;28;19961;-78
2024/04/03 07:57:40;;;;;;;;;;;6.50;99.90;;;;;;21074735;28;19944;-77
2024/04/03 08:07:44;;;;;;;;;;;6.50;99.90;;;;;;21091151;28;19942;-77
2024/04/03 08:17:44;;;;;;;;;;;6.70;99.90;;;;;;21087981;28;19963;-77
2024/04/03 08:27:45;;;;;;;;;;;6.90;99.90;;;;;;21086710;28;19923;-77
2024/04/03 08:37:46;;;;;;;;;;;7.00;99.90;;;;;;21084721;28;19920;-77
2024/04/03 08:47:48;;;;;;;;;;;7.10;99.90;;;;;;21071716;28;19916;-77
2024/04/03 08:57:48;;;;;;;;;;;7.00;99.90;;;;;;21085737;28;19916;-77
2024/04/03 09:08:05;;;;;;;;;;;6.80;99.90;;;;;;21086391;28;19969;-77
2024/04/03 09:18:06;;;;;;;;;;;6.90;99.90;;;;;;21084586;28;19952;-78
2024/04/03 09:28:08;;;;;;;;;;;7.40;99.90;;;;;;21088042;28;19916;-78
2024/04/03 09:38:13;;;;;;;;;;;7.40;99.90;;;;;;21083759;28;20382;-77
2024/04/03 09:48:14;;;;;;;;;;;7.30;99.90;;;;;;21029308;28;19918;-76
2024/04/03 09:58:18;;;;;;;;;;;7.50;99.90;;;;;;21030226;28;19948;-77
2024/04/03 10:08:19;;;;;;;;;;;8.10;99.90;;;;;;21026431;28;20535;-78
2024/04/03 10:18:25;;;;;;;;;;;8.20;99.90;;;;;;21057311;28;19955;-77
2024/04/03 10:28:25;;;;;;;;;;;8.50;99.90;;;;;;21076635;28;19912;-78
2024/04/03 10:38:26;;;;;;;;;;;8.80;99.90;;;;;;21079610;28;20385;-77
2024/04/03 10:48:28;;;;;;;;;;;9.40;99.90;;;;;;21075206;28;20212;-75
2024/04/03 10:58:29;;;;;;;;;;;9.30;99.90;;;;;;21071042;28;19970;-75
2024/04/03 11:08:31;;;;;;;;;;;9.20;99.90;;;;;;21066447;28;20337;-76
2024/04/03 11:18:31;;;;;;;;;;;9.50;99.90;;;;;;21073527;28;20053;-76
2024/04/03 11:28:32;;;;;;;;;;;9.40;99.90;;;;;;21068892;28;20409;-76
2024/04/03 11:38:33;;;;;;;;;;;9.50;99.90;;;;;;21067358;28;20023;-76
2024/04/03 11:48:34;;;;;;;;;;;9.50;99.90;;;;;;21083904;28;19913;-77
2024/04/03 11:58:34;;;;;;;;;;;9.70;99.90;;;;;;21100795;28;20320;-77
2024/04/03 12:08:36;;;;;;;;;;;9.20;99.90;;;;;;21099426;28;19916;-77
2024/04/03 12:18:50;;;;;;;;;;;9.10;99.90;;;;;;21095063;28;19916;-78
2024/04/03 12:28:51;;;;;;;;;;;9.10;99.90;;;;;;21089036;28;19955;-77
2024/04/03 12:38:54;;;;;;;;;;;9.40;99.90;;;;;;21085213;28;19978;-77
2024/04/03 12:48:55;;;;;;;;;;;9.70;99.90;;;;;;21084634;28;19927;-77
2024/04/03 12:58:55;;;;;;;;;;;10.40;99.90;;;;;;21088733;28;19999;-77
2024/04/03 13:08:56;;;;;;;;;;;10.60;99.90;;;;;;21086722;28;20387;-77
2024/04/03 13:18:57;;;;;;;;;;;10.60;99.90;;;;;;21089566;28;19916;-75
2024/04/03 13:28:57;;;;;;;;;;;10.60;99.90;;;;;;21090014;28;19912;-78
2024/04/03 13:38:58;;;;;;;;;;;10.50;99.90;;;;;;21090161;28;19916;-78
2024/04/03 13:48:59;;;;;;;;;;;10.30;99.90;;;;;;21057378;28;19958;-76
2024/04/03 13:58:59;;;;;;;;;;;10.10;99.90;;;;;;21080293;28;19916;-77
2024/04/03 14:09:03;;;;;;;;;;;10.00;99.90;;;;;;21064057;28;19912;-76
2024/04/03 14:19:04;;;;;;;;;;;9.90;99.90;;;;;;21077292;28;19920;-77
2024/04/03 14:29:04;;;;;;;;;;;9.90;99.90;;;;;;21073116;28;20379;-74
2024/04/03 14:39:06;;;;;;;;;;;9.90;99.90;;;;;;21079207;28;19923;-77
2024/04/03 14:49:07;;;;;;;;;;;9.90;99.90;;;;;;21045039;28;19927;-77
2024/04/03 14:59:07;;;;;;;;;;;10.10;99.90;;;;;;21038268;28;20276;-77
2024/04/03 15:09:10;;;;;;;;;;;10.30;99.90;;;;;;21046491;28;20350;-76
2024/04/03 15:19:10;;;;;;;;;;;10.60;99.90;;;;;;21045156;28;19917;-76
2024/04/03 15:29:11;;;;;;;;;;;10.80;99.90;;;;;;21054842;28;20406;-77
2024/04/03 15:39:12;;;;;;;;;;;11.20;99.90;;;;;;21102687;28;19916;-76
2024/04/03 15:49:13;;;;;;;;;;;11.40;99.90;;;;;;21108144;28;19979;-78
2024/04/03 15:59:13;;;;;;;;;;;11.70;99.90;;;;;;21106241;28;19935;-78
2024/04/03 16:09:15;;;;;;;;;;;11.80;99.90;;;;;;21105808;28;19980;-77
2024/04/03 16:19:16;;;;;;;;;;;11.60;99.90;;;;;;21107820;28;19973;-77
2024/04/03 16:29:17;;;;;;;;;;;11.50;99.90;;;;;;21118417;28;19959;-78
2024/04/03 16:39:17;;;;;;;;;;;11.30;99.90;;;;;;21112166;28;20002;-77
2024/04/03 16:49:18;;;;;;;;;;;10.90;99.90;;;;;;21125754;28;20367;-78
2024/04/03 16:59:18;;;;;;;;;;;11.00;99.90;;;;;;21118938;28;19923;-76
2024/04/03 17:09:19;;;;;;;;;;;10.70;99.90;;;;;;21106411;28;19916;-76
2024/04/03 17:19:20;;;;;;;;;;;10.60;99.90;;;;;;21105460;28;19920;-76
2024/04/03 17:29:21;;;;;;;;;;;10.40;99.90;;;;;;21102299;28;19970;-77
2024/04/03 17:39:22;;;;;;;;;;;10.30;99.90;;;;;;21103761;28;19959;-77
2024/04/03 17:49:23;;;;;;;;;;;10.20;99.90;;;;;;21129985;28;19916;-76
2024/04/03 17:59:24;;;;;;;;;;;10.10;99.90;;;;;;21137132;28;19939;-79
2024/04/03 18:09:25;;;;;;;;;;;10.20;99.90;;;;;;21117511;28;19916;-79
2024/04/03 18:19:25;;;;;;;;;;;10.00;99.90;;;;;;21117040;28;20396;-80
2024/04/03 18:29:26;;;;;;;;;;;9.80;99.90;;;;;;21112242;28;19919;-80
2024/04/03 18:39:27;;;;;;;;;;;9.70;99.90;;;;;;21118638;28;20454;-79
2024/04/03 18:49:28;;;;;;;;;;;9.70;99.90;;;;;;21153475;28;19911;-77
2024/04/03 18:59:28;;;;;;;;;;;9.70;99.90;;;;;;21177296;28;19935;-76
2024/04/03 19:09:29;;;;;;;;;;;9.80;99.90;;;;;;21125651;28;19994;-79
2024/04/03 19:19:30;;;;;;;;;;;9.80;99.90;;;;;;21111319;28;19916;-79
2024/04/03 19:29:30;;;;;;;;;;;9.70;99.90;;;;;;21095417;28;20297;-80
2024/04/03 19:39:31;;;;;;;;;;;9.60;99.90;;;;;;21106528;28;19916;-80
2024/04/03 19:49:32;;;;;;;;;;;9.40;99.90;;;;;;21114734;28;19919;-77
2024/04/03 19:59:32;;;;;;;;;;;9.40;99.90;;;;;;21111208;28;19927;-78
2024/04/03 20:09:33;;;;;;;;;;;9.40;99.90;;;;;;21142514;28;19916;-79
2024/04/03 20:19:34;;;;;;;;;;;9.40;99.90;;;;;;21173820;28;19930;-79
2024/04/03 20:29:34;;;;;;;;;;;9.50;99.90;;;;;;21164160;28;19976;-79
2024/04/03 20:39:39;;;;;;;;;;;9.50;99.90;;;;;;21166940;28;19935;-79
2024/04/03 20:49:39;;;;;;;;;;;9.40;99.90;;;;;;21135735;28;19913;-80
2024/04/03 20:59:40;;;;;;;;;;;9.30;99.90;;;;;;21139096;28;19916;-79
2024/04/03 21:09:41;;;;;;;;;;;9.30;99.90;;;;;;21182974;28;20285;-79
2024/04/03 21:19:41;;;;;;;;;;;9.30;99.90;;;;;;21186127;28;19922;-79
2024/04/03 21:29:42;;;;;;;;;;;9.40;99.90;;;;;;21190661;28;19912;-80
2024/04/03 21:39:45;;;;;;;;;;;9.40;99.90;;;;;;21182412;28;19915;-79
2024/04/03 21:49:45;;;;;;;;;;;9.40;99.90;;;;;;21158343;28;20455;-79
2024/04/03 21:59:48;;;;;;;;;;;9.30;99.90;;;;;;21183004;28;19915;-79
2024/04/03 22:09:49;;;;;;;;;;;9.30;99.90;;;;;;21171288;28;20286;-79
2024/04/03 22:19:49;;;;;;;;;;;9.40;99.90;;;;;;21185837;28;19916;-79
2024/04/03 22:29:50;;;;;;;;;;;9.40;99.90;;;;;;21160931;28;20433;-80
2024/04/03 22:39:51;;;;;;;;;;;9.40;99.90;;;;;;21177216;28;19923;-78
2024/04/03 22:49:53;;;;;;;;;;;9.30;99.90;;;;;;21174525;28;19912;-79
2024/04/03 22:59:53;;;;;;;;;;;9.40;99.90;;;;;;21174800;28;19922;-77
2024/04/03 23:09:54;;;;;;;;;;;9.40;99.90;;;;;;21174249;28;19912;-78
2024/04/03 23:19:55;;;;;;;;;;;9.20;99.90;;;;;;21173583;28;20285;-79
2024/04/03 23:29:55;;;;;;;;;;;9.30;99.90;;;;;;21172474;28;19927;-78
2024/04/03 23:39:56;;;;;;;;;;;9.50;99.90;;;;;;21157758;28;19920;-79
2024/04/03 23:49:57;;;;;;;;;;;9.40;99.90;;;;;;21172231;28;19912;-79
2024/04/03 23:59:57;;;;;;;;;;;9.50;99.90;;;;;;21168097;28;20374;-79
